sensor_id;sensor_type;location;lat;lon;timestamp;P1;durP1;ratioP1;P2;durP2;ratioP2
944;SDS011;459;48.676;9.034;2023-09-08T00:00:25;7.27;;;6.67;;
944;SDS011;459;48.676;9.034;2023-09-08T00:02:50;6.23;;;5.63;;
944;SDS011;459;48.676;9.034;2023-09-08T00:05:16;6.43;;;5.83;;
944;SDS011;459;48.676;9.034;2023-09-08T00:07:41;9.90;;;6.50;;
944;SDS011;459;48.676;9.034;2023-09-08T00:10:08;7.40;;;6.40;;
944;SDS011;459;48.676;9.034;2023-09-08T00:12:33;9.30;;;6.83;;
944;SDS011;459;48.676;9.034;2023-09-08T00:14:58;6.70;;;6.10;;
944;SDS011;459;48.676;9.034;2023-09-08T00:17:23;7.27;;;6.50;;
944;SDS011;459;48.676;9.034;2023-09-08T00:19:48;7.83;;;7.10;;
944;SDS011;459;48.676;9.034;2023-09-08T00:22:13;7.10;;;6.50;;
944;SDS011;459;48.676;9.034;2023-09-08T00:24:39;6.53;;;5.93;;
944;SDS011;459;48.676;9.034;2023-09-08T00:27:04;7.80;;;7.00;;
944;SDS011;459;48.676;9.034;2023-09-08T00:29:29;7.00;;;6.30;;
944;SDS011;459;48.676;9.034;2023-09-08T00:31:54;7.97;;;7.17;;
944;SDS011;459;48.676;9.034;2023-09-08T00:34:19;7.50;;;6.90;;
944;SDS011;459;48.676;9.034;2023-09-08T00:36:45;6.83;;;6.23;;
944;SDS011;459;48.676;9.034;2023-09-08T00:39:10;7.10;;;6.40;;
944;SDS011;459;48.676;9.034;2023-09-08T00:41:35;7.57;;;6.97;;
944;SDS011;459;48.676;9.034;2023-09-08T00:44:00;6.70;;;6.03;;
944;SDS011;459;48.676;9.034;2023-09-08T00:46:25;7.70;;;7.00;;
944;SDS011;459;48.676;9.034;2023-09-08T00:48:52;7.80;;;6.67;;
944;SDS011;459;48.676;9.034;2023-09-08T00:51:17;7.23;;;6.00;;
944;SDS011;459;48.676;9.034;2023-09-08T00:53:43;7.27;;;6.67;;
944;SDS011;459;48.676;9.034;2023-09-08T00:56:08;7.70;;;7.00;;
944;SDS011;459;48.676;9.034;2023-09-08T00:58:34;7.80;;;7.10;;
944;SDS011;459;48.676;9.034;2023-09-08T01:00:59;7.10;;;6.50;;
944;SDS011;459;48.676;9.034;2023-09-08T01:03:25;7.23;;;6.57;;
944;SDS011;459;48.676;9.034;2023-09-08T01:05:50;7.10;;;6.50;;
944;SDS011;459;48.676;9.034;2023-09-08T01:08:16;11.97;;;7.40;;
944;SDS011;459;48.676;9.034;2023-09-08T01:10:42;7.70;;;7.00;;
944;SDS011;459;48.676;9.034;2023-09-08T01:13:07;7.43;;;6.73;;
944;SDS011;459;48.676;9.034;2023-09-08T01:15:32;7.67;;;7.00;;
944;SDS011;459;48.676;9.034;2023-09-08T01:17:57;7.90;;;7.10;;
944;SDS011;459;48.676;9.034;2023-09-08T01:20:24;7.93;;;7.13;;
944;SDS011;459;48.676;9.034;2023-09-08T01:23:11;8.17;;;7.37;;
944;SDS011;459;48.676;9.034;2023-09-08T01:25:44;7.63;;;6.93;;
944;SDS011;459;48.676;9.034;2023-09-08T01:28:11;8.00;;;7.20;;
944;SDS011;459;48.676;9.034;2023-09-08T01:30:37;7.43;;;6.73;;
944;SDS011;459;48.676;9.034;2023-09-08T01:33:02;8.43;;;7.37;;
944;SDS011;459;48.676;9.034;2023-09-08T01:35:28;7.47;;;6.77;;
944;SDS011;459;48.676;9.034;2023-09-08T01:37:53;7.27;;;6.57;;
944;SDS011;459;48.676;9.034;2023-09-08T01:40:18;7.30;;;6.60;;
944;SDS011;459;48.676;9.034;2023-09-08T01:42:44;6.80;;;6.20;;
944;SDS011;459;48.676;9.034;2023-09-08T01:45:09;10.73;;;6.80;;
944;SDS011;459;48.676;9.034;2023-09-08T01:47:34;8.33;;;7.63;;
944;SDS011;459;48.676;9.034;2023-09-08T01:50:00;7.60;;;6.90;;
944;SDS011;459;48.676;9.034;2023-09-08T01:52:25;7.13;;;6.40;;
944;SDS011;459;48.676;9.034;2023-09-08T01:54:51;7.83;;;7.03;;
944;SDS011;459;48.676;9.034;2023-09-08T01:57:16;9.77;;;8.00;;
944;SDS011;459;48.676;9.034;2023-09-08T01:59:41;7.53;;;6.80;;
944;SDS011;459;48.676;9.034;2023-09-08T02:02:06;7.47;;;6.77;;
944;SDS011;459;48.676;9.034;2023-09-08T02:04:32;7.10;;;6.50;;
944;SDS011;459;48.676;9.034;2023-09-08T02:06:57;8.00;;;7.07;;
944;SDS011;459;48.676;9.034;2023-09-08T02:09:29;7.43;;;6.70;;
944;SDS011;459;48.676;9.034;2023-09-08T02:11:54;8.30;;;7.40;;
944;SDS011;459;48.676;9.034;2023-09-08T02:14:19;8.90;;;7.60;;
944;SDS011;459;48.676;9.034;2023-09-08T02:16:45;7.40;;;6.70;;
944;SDS011;459;48.676;9.034;2023-09-08T02:19:10;8.37;;;7.67;;
944;SDS011;459;48.676;9.034;2023-09-08T02:21:35;7.22;;;6.63;;
944;SDS011;459;48.676;9.034;2023-09-08T02:24:00;7.57;;;6.87;;
944;SDS011;459;48.676;9.034;2023-09-08T02:26:25;14.97;;;6.80;;
944;SDS011;459;48.676;9.034;2023-09-08T02:28:52;7.57;;;6.87;;
944;SDS011;459;48.676;9.034;2023-09-08T02:31:17;8.10;;;7.23;;
944;SDS011;459;48.676;9.034;2023-09-08T02:33:42;8.10;;;7.40;;
944;SDS011;459;48.676;9.034;2023-09-08T02:36:07;7.27;;;6.60;;
944;SDS011;459;48.676;9.034;2023-09-08T02:38:33;8.10;;;7.30;;
944;SDS011;459;48.676;9.034;2023-09-08T02:40:58;8.17;;;7.20;;
944;SDS011;459;48.676;9.034;2023-09-08T02:43:23;7.47;;;6.83;;
944;SDS011;459;48.676;9.034;2023-09-08T02:45:49;6.63;;;6.03;;
944;SDS011;459;48.676;9.034;2023-09-08T02:48:14;7.47;;;6.73;;
944;SDS011;459;48.676;9.034;2023-09-08T02:50:39;9.10;;;8.23;;
944;SDS011;459;48.676;9.034;2023-09-08T02:53:04;8.03;;;7.33;;
944;SDS011;459;48.676;9.034;2023-09-08T02:55:30;7.07;;;6.47;;
944;SDS011;459;48.676;9.034;2023-09-08T02:57:55;6.93;;;6.33;;
944;SDS011;459;48.676;9.034;2023-09-08T03:00:21;7.40;;;6.70;;
944;SDS011;459;48.676;9.034;2023-09-08T03:02:46;7.67;;;6.97;;
944;SDS011;459;48.676;9.034;2023-09-08T03:05:11;7.07;;;6.10;;
944;SDS011;459;48.676;9.034;2023-09-08T03:07:36;7.97;;;7.27;;
944;SDS011;459;48.676;9.034;2023-09-08T03:10:02;8.33;;;7.53;;
944;SDS011;459;48.676;9.034;2023-09-08T03:12:28;7.07;;;6.40;;
944;SDS011;459;48.676;9.034;2023-09-08T03:14:54;7.77;;;6.73;;
944;SDS011;459;48.676;9.034;2023-09-08T03:17:19;8.00;;;5.87;;
944;SDS011;459;48.676;9.034;2023-09-08T03:19:45;7.10;;;6.40;;
944;SDS011;459;48.676;9.034;2023-09-08T03:22:10;7.77;;;7.07;;
944;SDS011;459;48.676;9.034;2023-09-08T03:24:35;7.00;;;6.40;;
944;SDS011;459;48.676;9.034;2023-09-08T03:27:00;7.53;;;6.80;;
944;SDS011;459;48.676;9.034;2023-09-08T03:29:25;6.63;;;6.03;;
944;SDS011;459;48.676;9.034;2023-09-08T03:31:50;8.57;;;6.80;;
944;SDS011;459;48.676;9.034;2023-09-08T03:34:16;6.88;;;6.25;;
944;SDS011;459;48.676;9.034;2023-09-08T03:36:41;8.00;;;7.13;;
944;SDS011;459;48.676;9.034;2023-09-08T03:39:06;6.87;;;5.97;;
944;SDS011;459;48.676;9.034;2023-09-08T03:41:33;8.00;;;7.30;;
944;SDS011;459;48.676;9.034;2023-09-08T03:43:59;7.43;;;6.73;;
944;SDS011;459;48.676;9.034;2023-09-08T03:46:24;7.43;;;6.77;;
944;SDS011;459;48.676;9.034;2023-09-08T03:48:50;7.97;;;7.17;;
944;SDS011;459;48.676;9.034;2023-09-08T03:51:15;8.30;;;7.30;;
944;SDS011;459;48.676;9.034;2023-09-08T03:53:40;6.50;;;5.90;;
944;SDS011;459;48.676;9.034;2023-09-08T03:56:05;8.10;;;7.30;;
944;SDS011;459;48.676;9.034;2023-09-08T03:58:30;7.60;;;6.80;;
944;SDS011;459;48.676;9.034;2023-09-08T04:00:56;8.10;;;7.40;;
944;SDS011;459;48.676;9.034;2023-09-08T04:03:21;7.73;;;7.00;;
944;SDS011;459;48.676;9.034;2023-09-08T04:05:46;7.30;;;6.60;;
944;SDS011;459;48.676;9.034;2023-09-08T04:08:11;8.43;;;6.47;;
944;SDS011;459;48.676;9.034;2023-09-08T04:10:36;7.80;;;7.10;;
944;SDS011;459;48.676;9.034;2023-09-08T04:13:02;7.53;;;6.87;;
944;SDS011;459;48.676;9.034;2023-09-08T04:15:27;7.63;;;6.83;;
944;SDS011;459;48.676;9.034;2023-09-08T04:17:52;8.47;;;6.80;;
944;SDS011;459;48.676;9.034;2023-09-08T04:20:17;7.43;;;6.73;;
944;SDS011;459;48.676;9.034;2023-09-08T04:22:43;7.87;;;7.17;;
944;SDS011;459;48.676;9.034;2023-09-08T04:25:08;7.93;;;7.13;;
944;SDS011;459;48.676;9.034;2023-09-08T04:27:33;7.73;;;7.03;;
944;SDS011;459;48.676;9.034;2023-09-08T04:30:00;8.37;;;7.63;;
944;SDS011;459;48.676;9.034;2023-09-08T04:32:25;9.87;;;7.50;;
944;SDS011;459;48.676;9.034;2023-09-08T04:34:50;8.37;;;7.57;;
944;SDS011;459;48.676;9.034;2023-09-08T04:37:15;8.07;;;7.37;;
944;SDS011;459;48.676;9.034;2023-09-08T04:39:41;7.63;;;6.93;;
944;SDS011;459;48.676;9.034;2023-09-08T04:42:06;8.60;;;7.80;;
944;SDS011;459;48.676;9.034;2023-09-08T04:44:31;11.23;;;7.70;;
944;SDS011;459;48.676;9.034;2023-09-08T04:46:56;10.20;;;8.20;;
944;SDS011;459;48.676;9.034;2023-09-08T04:49:21;9.90;;;7.93;;
944;SDS011;459;48.676;9.034;2023-09-08T04:51:48;8.87;;;7.43;;
944;SDS011;459;48.676;9.034;2023-09-08T04:54:13;11.00;;;8.00;;
944;SDS011;459;48.676;9.034;2023-09-08T04:56:38;8.27;;;7.47;;
944;SDS011;459;48.676;9.034;2023-09-08T04:59:04;7.87;;;6.80;;
944;SDS011;459;48.676;9.034;2023-09-08T05:01:29;7.93;;;6.70;;
944;SDS011;459;48.676;9.034;2023-09-08T05:04:00;7.27;;;6.57;;
944;SDS011;459;48.676;9.034;2023-09-08T05:06:25;9.10;;;8.30;;
944;SDS011;459;48.676;9.034;2023-09-08T05:08:51;8.33;;;7.50;;
944;SDS011;459;48.676;9.034;2023-09-08T05:11:16;14.53;;;8.17;;
944;SDS011;459;48.676;9.034;2023-09-08T05:13:42;11.53;;;8.47;;
944;SDS011;459;48.676;9.034;2023-09-08T05:16:07;9.37;;;7.97;;
944;SDS011;459;48.676;9.034;2023-09-08T05:18:39;7.47;;;6.67;;
944;SDS011;459;48.676;9.034;2023-09-08T05:21:04;8.20;;;7.50;;
944;SDS011;459;48.676;9.034;2023-09-08T05:23:29;8.10;;;7.50;;
944;SDS011;459;48.676;9.034;2023-09-08T05:25:55;8.23;;;7.43;;
944;SDS011;459;48.676;9.034;2023-09-08T05:28:20;10.87;;;7.70;;
944;SDS011;459;48.676;9.034;2023-09-08T05:30:45;9.23;;;7.23;;
944;SDS011;459;48.676;9.034;2023-09-08T05:33:10;10.73;;;8.53;;
944;SDS011;459;48.676;9.034;2023-09-08T05:35:35;8.73;;;7.93;;
944;SDS011;459;48.676;9.034;2023-09-08T05:38:01;11.73;;;8.03;;
944;SDS011;459;48.676;9.034;2023-09-08T05:40:26;10.30;;;7.80;;
944;SDS011;459;48.676;9.034;2023-09-08T05:42:51;9.60;;;8.57;;
944;SDS011;459;48.676;9.034;2023-09-08T05:45:16;10.03;;;7.50;;
944;SDS011;459;48.676;9.034;2023-09-08T05:47:41;10.63;;;7.97;;
944;SDS011;459;48.676;9.034;2023-09-08T05:50:07;11.43;;;8.10;;
944;SDS011;459;48.676;9.034;2023-09-08T05:52:32;9.23;;;8.33;;
944;SDS011;459;48.676;9.034;2023-09-08T05:54:58;9.30;;;8.43;;
944;SDS011;459;48.676;9.034;2023-09-08T05:57:23;8.70;;;7.80;;
944;SDS011;459;48.676;9.034;2023-09-08T05:59:49;10.07;;;8.60;;
944;SDS011;459;48.676;9.034;2023-09-08T06:02:14;12.20;;;10.70;;
944;SDS011;459;48.676;9.034;2023-09-08T06:04:39;11.73;;;10.70;;
944;SDS011;459;48.676;9.034;2023-09-08T06:07:04;13.83;;;10.70;;
944;SDS011;459;48.676;9.034;2023-09-08T06:09:29;14.10;;;11.60;;
944;SDS011;459;48.676;9.034;2023-09-08T06:11:55;15.67;;;11.67;;
944;SDS011;459;48.676;9.034;2023-09-08T06:14:20;13.70;;;10.90;;
944;SDS011;459;48.676;9.034;2023-09-08T06:16:45;15.27;;;9.63;;
944;SDS011;459;48.676;9.034;2023-09-08T06:19:11;10.30;;;9.27;;
944;SDS011;459;48.676;9.034;2023-09-08T06:21:36;11.10;;;10.10;;
944;SDS011;459;48.676;9.034;2023-09-08T06:24:02;10.67;;;9.50;;
944;SDS011;459;48.676;9.034;2023-09-08T06:26:27;19.03;;;11.70;;
944;SDS011;459;48.676;9.034;2023-09-08T06:28:52;17.97;;;11.37;;
944;SDS011;459;48.676;9.034;2023-09-08T06:31:17;14.60;;;11.43;;
944;SDS011;459;48.676;9.034;2023-09-08T06:33:42;13.90;;;12.07;;
944;SDS011;459;48.676;9.034;2023-09-08T06:36:07;12.00;;;10.87;;
944;SDS011;459;48.676;9.034;2023-09-08T06:38:33;12.13;;;10.93;;
944;SDS011;459;48.676;9.034;2023-09-08T06:40:58;11.60;;;10.50;;
944;SDS011;459;48.676;9.034;2023-09-08T06:43:23;12.57;;;11.23;;
944;SDS011;459;48.676;9.034;2023-09-08T06:45:49;11.37;;;9.83;;
944;SDS011;459;48.676;9.034;2023-09-08T06:48:14;10.07;;;8.63;;
944;SDS011;459;48.676;9.034;2023-09-08T06:50:39;9.57;;;8.60;;
944;SDS011;459;48.676;9.034;2023-09-08T06:53:05;11.80;;;10.57;;
944;SDS011;459;48.676;9.034;2023-09-08T06:55:30;13.97;;;12.43;;
944;SDS011;459;48.676;9.034;2023-09-08T06:57:55;10.80;;;9.80;;
944;SDS011;459;48.676;9.034;2023-09-08T07:00:20;9.10;;;8.30;;
944;SDS011;459;48.676;9.034;2023-09-08T07:02:46;9.50;;;8.70;;
944;SDS011;459;48.676;9.034;2023-09-08T07:05:11;9.47;;;8.63;;
944;SDS011;459;48.676;9.034;2023-09-08T07:07:36;10.40;;;9.40;;
944;SDS011;459;48.676;9.034;2023-09-08T07:10:04;9.17;;;8.33;;
944;SDS011;459;48.676;9.034;2023-09-08T07:12:30;9.60;;;8.80;;
944;SDS011;459;48.676;9.034;2023-09-08T07:14:55;9.90;;;9.00;;
944;SDS011;459;48.676;9.034;2023-09-08T07:17:21;9.37;;;8.60;;
944;SDS011;459;48.676;9.034;2023-09-08T07:19:48;9.07;;;8.37;;
944;SDS011;459;48.676;9.034;2023-09-08T07:22:13;10.10;;;9.20;;
944;SDS011;459;48.676;9.034;2023-09-08T07:24:38;9.40;;;8.40;;
944;SDS011;459;48.676;9.034;2023-09-08T07:27:03;10.93;;;9.80;;
944;SDS011;459;48.676;9.034;2023-09-08T07:29:28;10.33;;;8.97;;
944;SDS011;459;48.676;9.034;2023-09-08T07:31:54;10.40;;;9.43;;
944;SDS011;459;48.676;9.034;2023-09-08T07:34:19;9.93;;;9.07;;
944;SDS011;459;48.676;9.034;2023-09-08T07:36:44;10.33;;;9.33;;
944;SDS011;459;48.676;9.034;2023-09-08T07:39:10;9.67;;;8.80;;
944;SDS011;459;48.676;9.034;2023-09-08T07:41:35;10.67;;;9.87;;
944;SDS011;459;48.676;9.034;2023-09-08T07:44:01;10.60;;;9.60;;
944;SDS011;459;48.676;9.034;2023-09-08T07:46:26;10.23;;;9.40;;
944;SDS011;459;48.676;9.034;2023-09-08T07:48:52;9.70;;;8.80;;
944;SDS011;459;48.676;9.034;2023-09-08T07:51:17;11.13;;;10.17;;
944;SDS011;459;48.676;9.034;2023-09-08T07:53:42;10.47;;;9.50;;
944;SDS011;459;48.676;9.034;2023-09-08T07:56:07;12.30;;;11.30;;
944;SDS011;459;48.676;9.034;2023-09-08T07:58:32;11.63;;;10.53;;
944;SDS011;459;48.676;9.034;2023-09-08T08:00:58;9.43;;;8.63;;
944;SDS011;459;48.676;9.034;2023-09-08T08:03:23;10.20;;;9.30;;
944;SDS011;459;48.676;9.034;2023-09-08T08:05:48;10.20;;;9.23;;
944;SDS011;459;48.676;9.034;2023-09-08T08:08:13;10.03;;;8.20;;
944;SDS011;459;48.676;9.034;2023-09-08T08:10:40;9.43;;;8.63;;
944;SDS011;459;48.676;9.034;2023-09-08T08:13:05;10.33;;;9.30;;
944;SDS011;459;48.676;9.034;2023-09-08T08:15:37;10.00;;;9.20;;
944;SDS011;459;48.676;9.034;2023-09-08T08:18:03;19.97;;;12.20;;
944;SDS011;459;48.676;9.034;2023-09-08T08:20:29;18.23;;;12.00;;
944;SDS011;459;48.676;9.034;2023-09-08T08:22:54;15.17;;;10.80;;
944;SDS011;459;48.676;9.034;2023-09-08T08:25:19;11.63;;;9.73;;
944;SDS011;459;48.676;9.034;2023-09-08T08:27:44;9.23;;;8.43;;
944;SDS011;459;48.676;9.034;2023-09-08T08:30:10;9.80;;;8.97;;
944;SDS011;459;48.676;9.034;2023-09-08T08:32:36;10.10;;;8.83;;
944;SDS011;459;48.676;9.034;2023-09-08T08:35:01;10.23;;;9.23;;
944;SDS011;459;48.676;9.034;2023-09-08T08:37:26;9.80;;;9.00;;
944;SDS011;459;48.676;9.034;2023-09-08T08:39:52;11.53;;;10.10;;
944;SDS011;459;48.676;9.034;2023-09-08T08:42:18;10.50;;;9.43;;
944;SDS011;459;48.676;9.034;2023-09-08T08:44:47;9.37;;;8.53;;
944;SDS011;459;48.676;9.034;2023-09-08T08:47:12;9.40;;;8.50;;
944;SDS011;459;48.676;9.034;2023-09-08T08:49:38;9.80;;;8.90;;
944;SDS011;459;48.676;9.034;2023-09-08T08:52:07;10.17;;;9.27;;
944;SDS011;459;48.676;9.034;2023-09-08T08:54:37;10.23;;;9.23;;
944;SDS011;459;48.676;9.034;2023-09-08T08:57:03;10.33;;;9.43;;
944;SDS011;459;48.676;9.034;2023-09-08T08:59:28;9.80;;;8.53;;
944;SDS011;459;48.676;9.034;2023-09-08T09:01:54;10.77;;;9.67;;
944;SDS011;459;48.676;9.034;2023-09-08T09:04:20;18.23;;;10.60;;
944;SDS011;459;48.676;9.034;2023-09-08T09:06:46;11.53;;;10.43;;
944;SDS011;459;48.676;9.034;2023-09-08T09:09:11;10.00;;;9.13;;
944;SDS011;459;48.676;9.034;2023-09-08T09:11:36;10.10;;;9.23;;
944;SDS011;459;48.676;9.034;2023-09-08T09:14:02;10.43;;;9.63;;
944;SDS011;459;48.676;9.034;2023-09-08T09:16:27;10.47;;;9.47;;
944;SDS011;459;48.676;9.034;2023-09-08T09:18:54;9.07;;;8.30;;
944;SDS011;459;48.676;9.034;2023-09-08T09:21:20;10.47;;;9.43;;
944;SDS011;459;48.676;9.034;2023-09-08T09:23:45;9.60;;;8.57;;
944;SDS011;459;48.676;9.034;2023-09-08T09:26:10;11.27;;;10.27;;
944;SDS011;459;48.676;9.034;2023-09-08T09:28:47;10.73;;;9.73;;
944;SDS011;459;48.676;9.034;2023-09-08T09:31:12;10.17;;;8.80;;
944;SDS011;459;48.676;9.034;2023-09-08T09:33:38;8.30;;;7.60;;
944;SDS011;459;48.676;9.034;2023-09-08T09:36:03;9.47;;;8.57;;
944;SDS011;459;48.676;9.034;2023-09-08T09:38:28;10.30;;;9.40;;
944;SDS011;459;48.676;9.034;2023-09-08T09:40:54;9.80;;;8.90;;
944;SDS011;459;48.676;9.034;2023-09-08T09:43:20;9.27;;;8.57;;
944;SDS011;459;48.676;9.034;2023-09-08T09:45:45;10.57;;;9.03;;
944;SDS011;459;48.676;9.034;2023-09-08T09:48:11;9.70;;;8.80;;
944;SDS011;459;48.676;9.034;2023-09-08T09:50:41;9.27;;;8.53;;
944;SDS011;459;48.676;9.034;2023-09-08T09:53:09;10.07;;;8.20;;
944;SDS011;459;48.676;9.034;2023-09-08T09:55:36;10.87;;;9.10;;
944;SDS011;459;48.676;9.034;2023-09-08T09:58:01;8.70;;;8.00;;
944;SDS011;459;48.676;9.034;2023-09-08T10:00:29;10.27;;;8.20;;
944;SDS011;459;48.676;9.034;2023-09-08T10:02:54;9.03;;;8.10;;
944;SDS011;459;48.676;9.034;2023-09-08T10:05:20;9.27;;;8.57;;
944;SDS011;459;48.676;9.034;2023-09-08T10:07:48;10.27;;;9.47;;
944;SDS011;459;48.676;9.034;2023-09-08T10:10:14;9.53;;;8.73;;
944;SDS011;459;48.676;9.034;2023-09-08T10:12:40;8.30;;;7.67;;
944;SDS011;459;48.676;9.034;2023-09-08T10:15:07;9.40;;;8.70;;
944;SDS011;459;48.676;9.034;2023-09-08T10:17:33;8.83;;;8.13;;
944;SDS011;459;48.676;9.034;2023-09-08T10:20:00;8.30;;;7.50;;
944;SDS011;459;48.676;9.034;2023-09-08T10:22:28;8.70;;;7.97;;
944;SDS011;459;48.676;9.034;2023-09-08T10:24:54;9.30;;;8.47;;
944;SDS011;459;48.676;9.034;2023-09-08T10:27:21;8.27;;;7.47;;
944;SDS011;459;48.676;9.034;2023-09-08T10:29:48;8.30;;;7.60;;
944;SDS011;459;48.676;9.034;2023-09-08T10:32:14;8.97;;;8.13;;
944;SDS011;459;48.676;9.034;2023-09-08T10:34:40;8.80;;;7.93;;
944;SDS011;459;48.676;9.034;2023-09-08T10:37:19;8.73;;;7.70;;
944;SDS011;459;48.676;9.034;2023-09-08T10:39:44;8.50;;;7.70;;
944;SDS011;459;48.676;9.034;2023-09-08T10:49:59;9.40;;;7.97;;
944;SDS011;459;48.676;9.034;2023-09-08T10:52:25;9.43;;;8.40;;
944;SDS011;459;48.676;9.034;2023-09-08T10:54:51;9.20;;;8.20;;
944;SDS011;459;48.676;9.034;2023-09-08T10:57:25;9.67;;;8.77;;
944;SDS011;459;48.676;9.034;2023-09-08T10:59:55;10.47;;;7.73;;
944;SDS011;459;48.676;9.034;2023-09-08T11:02:36;9.37;;;8.57;;
944;SDS011;459;48.676;9.034;2023-09-08T11:05:03;9.37;;;8.53;;
944;SDS011;459;48.676;9.034;2023-09-08T11:07:30;8.67;;;7.97;;
944;SDS011;459;48.676;9.034;2023-09-08T11:09:55;8.03;;;7.33;;
944;SDS011;459;48.676;9.034;2023-09-08T11:12:20;11.90;;;8.60;;
944;SDS011;459;48.676;9.034;2023-09-08T11:14:48;9.00;;;8.20;;
944;SDS011;459;48.676;9.034;2023-09-08T11:17:13;9.33;;;7.70;;
944;SDS011;459;48.676;9.034;2023-09-08T11:19:45;8.37;;;7.23;;
944;SDS011;459;48.676;9.034;2023-09-08T11:22:11;8.60;;;7.80;;
944;SDS011;459;48.676;9.034;2023-09-08T11:24:36;8.33;;;7.63;;
944;SDS011;459;48.676;9.034;2023-09-08T11:27:01;9.17;;;8.40;;
944;SDS011;459;48.676;9.034;2023-09-08T11:29:27;9.17;;;8.37;;
944;SDS011;459;48.676;9.034;2023-09-08T11:31:53;9.33;;;8.63;;
944;SDS011;459;48.676;9.034;2023-09-08T11:34:20;8.80;;;8.10;;
944;SDS011;459;48.676;9.034;2023-09-08T11:36:45;9.03;;;8.13;;
944;SDS011;459;48.676;9.034;2023-09-08T11:39:10;9.23;;;8.40;;
944;SDS011;459;48.676;9.034;2023-09-08T11:41:35;8.30;;;7.60;;
944;SDS011;459;48.676;9.034;2023-09-08T11:44:01;8.80;;;8.10;;
944;SDS011;459;48.676;9.034;2023-09-08T11:46:26;8.93;;;8.13;;
944;SDS011;459;48.676;9.034;2023-09-08T11:48:52;8.47;;;7.77;;
944;SDS011;459;48.676;9.034;2023-09-08T11:51:17;7.40;;;6.80;;
944;SDS011;459;48.676;9.034;2023-09-08T11:53:47;8.00;;;7.30;;
944;SDS011;459;48.676;9.034;2023-09-08T11:56:12;7.93;;;7.23;;
944;SDS011;459;48.676;9.034;2023-09-08T11:58:37;7.73;;;7.23;;
944;SDS011;459;48.676;9.034;2023-09-08T12:01:03;7.57;;;6.80;;
944;SDS011;459;48.676;9.034;2023-09-08T12:03:28;7.77;;;6.70;;
944;SDS011;459;48.676;9.034;2023-09-08T12:05:53;8.07;;;7.47;;
944;SDS011;459;48.676;9.034;2023-09-08T12:08:20;7.60;;;7.00;;
944;SDS011;459;48.676;9.034;2023-09-08T12:10:45;7.43;;;6.83;;
944;SDS011;459;48.676;9.034;2023-09-08T12:13:10;8.77;;;7.87;;
944;SDS011;459;48.676;9.034;2023-09-08T12:18:01;8.00;;;7.20;;
944;SDS011;459;48.676;9.034;2023-09-08T12:20:27;7.40;;;6.80;;
944;SDS011;459;48.676;9.034;2023-09-08T12:22:53;7.90;;;7.30;;
944;SDS011;459;48.676;9.034;2023-09-08T12:25:18;7.47;;;6.63;;
944;SDS011;459;48.676;9.034;2023-09-08T12:27:44;7.40;;;6.90;;
944;SDS011;459;48.676;9.034;2023-09-08T12:30:15;7.40;;;6.80;;
944;SDS011;459;48.676;9.034;2023-09-08T12:32:41;7.37;;;6.77;;
944;SDS011;459;48.676;9.034;2023-09-08T12:35:06;7.90;;;7.10;;
944;SDS011;459;48.676;9.034;2023-09-08T12:37:32;7.10;;;6.47;;
944;SDS011;459;48.676;9.034;2023-09-08T12:39:58;6.77;;;6.27;;
944;SDS011;459;48.676;9.034;2023-09-08T12:42:23;7.10;;;6.50;;
944;SDS011;459;48.676;9.034;2023-09-08T12:44:53;7.93;;;7.27;;
944;SDS011;459;48.676;9.034;2023-09-08T12:47:19;8.50;;;7.90;;
944;SDS011;459;48.676;9.034;2023-09-08T12:49:44;8.10;;;7.40;;
944;SDS011;459;48.676;9.034;2023-09-08T12:52:09;8.87;;;8.03;;
944;SDS011;459;48.676;9.034;2023-09-08T12:54:35;10.37;;;9.27;;
944;SDS011;459;48.676;9.034;2023-09-08T12:57:00;8.23;;;7.43;;
944;SDS011;459;48.676;9.034;2023-09-08T12:59:25;8.90;;;8.20;;
944;SDS011;459;48.676;9.034;2023-09-08T13:01:50;8.43;;;7.83;;
944;SDS011;459;48.676;9.034;2023-09-08T13:04:15;8.90;;;8.20;;
944;SDS011;459;48.676;9.034;2023-09-08T13:06:40;8.47;;;7.77;;
944;SDS011;459;48.676;9.034;2023-09-08T13:09:06;9.30;;;8.50;;
944;SDS011;459;48.676;9.034;2023-09-08T13:11:32;9.57;;;8.77;;
944;SDS011;459;48.676;9.034;2023-09-08T13:13:57;10.07;;;9.10;;
944;SDS011;459;48.676;9.034;2023-09-08T13:16:22;8.83;;;8.23;;
944;SDS011;459;48.676;9.034;2023-09-08T13:18:47;8.87;;;8.17;;
944;SDS011;459;48.676;9.034;2023-09-08T13:21:14;7.73;;;7.20;;
944;SDS011;459;48.676;9.034;2023-09-08T13:23:39;9.17;;;8.27;;
944;SDS011;459;48.676;9.034;2023-09-08T13:26:04;8.93;;;8.13;;
944;SDS011;459;48.676;9.034;2023-09-08T13:28:29;8.60;;;7.90;;
944;SDS011;459;48.676;9.034;2023-09-08T13:30:55;9.33;;;8.60;;
944;SDS011;459;48.676;9.034;2023-09-08T13:33:20;8.77;;;8.13;;
944;SDS011;459;48.676;9.034;2023-09-08T13:35:45;8.40;;;7.80;;
944;SDS011;459;48.676;9.034;2023-09-08T13:38:10;8.60;;;7.80;;
944;SDS011;459;48.676;9.034;2023-09-08T13:40:35;8.70;;;8.00;;
944;SDS011;459;48.676;9.034;2023-09-08T13:43:01;9.27;;;8.47;;
944;SDS011;459;48.676;9.034;2023-09-08T13:45:26;7.90;;;7.40;;
944;SDS011;459;48.676;9.034;2023-09-08T13:47:51;8.77;;;8.17;;
944;SDS011;459;48.676;9.034;2023-09-08T13:50:16;8.93;;;8.03;;
944;SDS011;459;48.676;9.034;2023-09-08T13:52:42;8.07;;;7.43;;
944;SDS011;459;48.676;9.034;2023-09-08T13:55:08;8.70;;;8.03;;
944;SDS011;459;48.676;9.034;2023-09-08T13:57:33;8.63;;;7.93;;
944;SDS011;459;48.676;9.034;2023-09-08T13:59:59;9.03;;;8.20;;
944;SDS011;459;48.676;9.034;2023-09-08T14:02:24;9.30;;;8.17;;
944;SDS011;459;48.676;9.034;2023-09-08T14:04:49;8.30;;;7.60;;
944;SDS011;459;48.676;9.034;2023-09-08T14:07:14;8.47;;;7.70;;
944;SDS011;459;48.676;9.034;2023-09-08T14:09:39;8.60;;;7.80;;
944;SDS011;459;48.676;9.034;2023-09-08T14:12:05;8.70;;;8.00;;
944;SDS011;459;48.676;9.034;2023-09-08T14:14:30;8.10;;;7.50;;
944;SDS011;459;48.676;9.034;2023-09-08T14:16:55;9.07;;;8.23;;
944;SDS011;459;48.676;9.034;2023-09-08T14:19:20;8.00;;;7.40;;
944;SDS011;459;48.676;9.034;2023-09-08T14:21:45;7.80;;;7.13;;
944;SDS011;459;48.676;9.034;2023-09-08T14:24:11;8.27;;;7.57;;
944;SDS011;459;48.676;9.034;2023-09-08T14:26:36;8.43;;;7.63;;
944;SDS011;459;48.676;9.034;2023-09-08T14:29:01;7.90;;;7.20;;
944;SDS011;459;48.676;9.034;2023-09-08T14:31:26;8.50;;;7.80;;
944;SDS011;459;48.676;9.034;2023-09-08T14:33:51;9.77;;;8.97;;
944;SDS011;459;48.676;9.034;2023-09-08T14:36:20;8.17;;;7.57;;
944;SDS011;459;48.676;9.034;2023-09-08T14:38:45;7.77;;;7.17;;
944;SDS011;459;48.676;9.034;2023-09-08T14:41:10;9.37;;;8.40;;
944;SDS011;459;48.676;9.034;2023-09-08T14:43:36;8.37;;;7.77;;
944;SDS011;459;48.676;9.034;2023-09-08T14:46:01;8.27;;;7.57;;
944;SDS011;459;48.676;9.034;2023-09-08T14:48:28;8.27;;;7.67;;
944;SDS011;459;48.676;9.034;2023-09-08T14:50:53;12.77;;;8.70;;
944;SDS011;459;48.676;9.034;2023-09-08T14:53:19;10.57;;;7.30;;
944;SDS011;459;48.676;9.034;2023-09-08T14:55:44;8.40;;;7.80;;
944;SDS011;459;48.676;9.034;2023-09-08T14:58:10;7.87;;;7.20;;
944;SDS011;459;48.676;9.034;2023-09-08T15:00:36;9.23;;;7.30;;
944;SDS011;459;48.676;9.034;2023-09-08T15:03:01;7.83;;;7.13;;
944;SDS011;459;48.676;9.034;2023-09-08T15:05:29;7.50;;;7.00;;
944;SDS011;459;48.676;9.034;2023-09-08T15:07:54;7.67;;;7.07;;
944;SDS011;459;48.676;9.034;2023-09-08T15:10:19;8.13;;;7.23;;
944;SDS011;459;48.676;9.034;2023-09-08T15:12:45;7.70;;;7.00;;
944;SDS011;459;48.676;9.034;2023-09-08T15:15:10;7.53;;;6.93;;
944;SDS011;459;48.676;9.034;2023-09-08T15:17:35;7.10;;;6.40;;
944;SDS011;459;48.676;9.034;2023-09-08T15:20:00;7.80;;;7.10;;
944;SDS011;459;48.676;9.034;2023-09-08T15:22:26;7.63;;;7.13;;
944;SDS011;459;48.676;9.034;2023-09-08T15:24:51;7.80;;;7.00;;
944;SDS011;459;48.676;9.034;2023-09-08T15:27:16;8.83;;;8.13;;
944;SDS011;459;48.676;9.034;2023-09-08T15:29:41;8.50;;;7.37;;
944;SDS011;459;48.676;9.034;2023-09-08T15:32:07;7.27;;;6.67;;
944;SDS011;459;48.676;9.034;2023-09-08T15:34:33;7.63;;;7.07;;
944;SDS011;459;48.676;9.034;2023-09-08T15:36:58;7.87;;;6.40;;
944;SDS011;459;48.676;9.034;2023-09-08T15:39:24;7.60;;;7.00;;